createdAt,value
2018-07-09T00:01:16.338Z,4.43
2018-07-09T00:03:44.845Z,3.57
2018-07-09T00:06:13.404Z,4.80
2018-07-09T00:08:41.962Z,3.53
2018-07-09T00:11:10.111Z,4.00
2018-07-09T00:13:38.616Z,3.67
2018-07-09T00:16:07.582Z,4.10
2018-07-09T00:18:36.034Z,4.57
2018-07-09T00:21:04.568Z,4.13
2018-07-09T00:23:32.715Z,4.27
2018-07-09T00:26:01.235Z,5.70
2018-07-09T00:28:29.339Z,4.00
2018-07-09T00:30:57.527Z,4.43
2018-07-09T00:33:26.005Z,4.27
2018-07-09T00:35:54.540Z,3.70
2018-07-09T00:38:23.017Z,4.37
2018-07-09T00:40:51.533Z,4.37
2018-07-09T00:43:20.007Z,4.10
2018-07-09T00:45:48.143Z,4.07
2018-07-09T00:48:16.689Z,3.93
2018-07-09T00:50:44.783Z,4.27
2018-07-09T00:53:13.293Z,3.80
2018-07-09T00:55:41.449Z,4.37
2018-07-09T00:58:09.563Z,4.00
2018-07-09T01:00:37.748Z,4.40
2018-07-09T01:03:05.874Z,4.43
2018-07-09T01:05:34.389Z,4.10
2018-07-09T01:08:02.511Z,4.00
2018-07-09T01:10:30.637Z,3.63
2018-07-09T01:12:59.065Z,4.20
2018-07-09T01:15:27.280Z,4.20
2018-07-09T01:17:55.447Z,5.30
2018-07-09T01:20:23.682Z,4.00
2018-07-09T01:22:51.735Z,4.90
2018-07-09T01:25:20.227Z,4.90
2018-07-09T01:27:48.403Z,5.17
2018-07-09T01:30:16.835Z,4.13
2018-07-09T01:32:45.287Z,4.33
2018-07-09T01:35:14.234Z,4.27
2018-07-09T01:37:43.051Z,4.50
2018-07-09T01:40:11.666Z,4.70
2018-07-09T01:42:40.104Z,4.70
2018-07-09T01:45:08.551Z,4.57
2018-07-09T01:47:36.939Z,3.70
2018-07-09T01:50:05.053Z,5.57
2018-07-09T01:52:33.159Z,4.47
2018-07-09T01:55:01.514Z,4.03
2018-07-09T01:57:29.613Z,4.80
2018-07-09T01:59:58.061Z,4.30
2018-07-09T02:02:26.568Z,4.33
2018-07-09T02:04:55.042Z,5.80
2018-07-09T02:07:23.183Z,4.40
2018-07-09T02:09:51.887Z,4.87
2018-07-09T02:12:20.327Z,4.10
2018-07-09T02:14:48.494Z,3.80
2018-07-09T02:17:16.918Z,3.70
2018-07-09T02:19:45.354Z,4.70
2018-07-09T02:22:13.851Z,4.97
2018-07-09T02:24:42.412Z,4.30
2018-07-09T02:27:10.938Z,4.40
2018-07-09T02:29:39.521Z,4.10
2018-07-09T02:32:07.656Z,4.60
2018-07-09T02:34:35.846Z,4.60
2018-07-09T02:37:04.277Z,4.00
2018-07-09T02:39:32.400Z,4.30
2018-07-09T02:42:00.819Z,4.97
2018-07-09T02:44:28.942Z,4.30
2018-07-09T02:46:57.101Z,4.07
2018-07-09T02:49:25.541Z,4.70
2018-07-09T02:51:53.695Z,5.03
2018-07-09T02:54:22.127Z,4.17
2018-07-09T02:56:50.236Z,3.93
2018-07-09T02:59:18.361Z,4.30
2018-07-09T03:01:46.816Z,4.00
2018-07-09T03:04:15.311Z,6.20
2018-07-09T03:06:43.791Z,10.03
2018-07-09T03:09:12.146Z,5.27
2018-07-09T03:11:40.276Z,5.00
2018-07-09T03:14:08.448Z,5.90
2018-07-09T03:16:36.725Z,4.80
2018-07-09T03:19:04.878Z,4.00
2018-07-09T03:21:32.977Z,7.23
2018-07-09T03:24:01.394Z,4.40
2018-07-09T03:26:29.668Z,4.23
2018-07-09T03:28:58.131Z,5.20
2018-07-09T03:31:26.546Z,4.70
2018-07-09T03:33:54.979Z,5.10
2018-07-09T03:36:23.505Z,4.90
2018-07-09T03:38:51.725Z,4.60
2018-07-09T03:41:20.701Z,5.00
2018-07-09T03:43:49.004Z,4.77
2018-07-09T03:46:17.804Z,5.00
2018-07-09T03:48:45.911Z,4.33
2018-07-09T03:51:14.056Z,4.90
2018-07-09T03:53:42.484Z,4.70
2018-07-09T03:56:10.583Z,5.20
2018-07-09T03:58:38.799Z,5.57
2018-07-09T04:01:06.986Z,5.90
2018-07-09T04:03:35.131Z,5.40
2018-07-09T04:06:03.638Z,5.30
2018-07-09T04:08:32.073Z,5.50
2018-07-09T04:11:00.244Z,5.93
2018-07-09T04:13:28.644Z,5.80
2018-07-09T04:15:56.783Z,6.10
2018-07-09T04:18:25.542Z,6.40
2018-07-09T04:20:55.386Z,5.77
2018-07-09T04:23:23.834Z,5.70
2018-07-09T04:25:52.318Z,5.63
2018-07-09T04:28:21.101Z,6.40
2018-07-09T04:30:51.979Z,7.47
2018-07-09T04:33:20.600Z,7.33
2018-07-09T04:35:49.261Z,6.07
2018-07-09T04:38:17.741Z,7.03
2018-07-09T04:40:46.247Z,6.60
2018-07-09T04:43:14.767Z,6.97
2018-07-09T04:45:43.221Z,7.03
2018-07-09T04:48:14.066Z,7.33
2018-07-09T04:50:42.561Z,7.60
2018-07-09T04:53:10.668Z,6.10
2018-07-09T04:55:38.795Z,6.10
2018-07-09T04:58:08.265Z,7.60
2018-07-09T05:00:36.753Z,7.10
2018-07-09T05:03:05.202Z,7.17
2018-07-09T05:05:33.331Z,6.80
2018-07-09T05:08:01.441Z,6.23
2018-07-09T05:10:29.865Z,6.87
2018-07-09T05:12:58.340Z,6.93
2018-07-09T05:15:26.847Z,7.10
2018-07-09T05:17:54.964Z,6.83
2018-07-09T05:20:23.443Z,6.43
2018-07-09T05:22:51.877Z,6.90
2018-07-09T05:25:19.998Z,6.80
2018-07-09T05:27:48.435Z,6.50
2018-07-09T05:30:16.867Z,6.43
2018-07-09T05:32:45.373Z,7.30
2018-07-09T05:35:13.803Z,10.17
2018-07-09T05:37:42.221Z,6.63
2018-07-09T05:40:10.641Z,7.80
2018-07-09T05:42:39.201Z,6.93
2018-07-09T05:45:07.817Z,7.37
2018-07-09T05:47:36.677Z,7.40
2018-07-09T05:50:04.800Z,6.60
2018-07-09T05:52:33.279Z,6.80
2018-07-09T05:55:01.753Z,6.93
2018-07-09T05:57:29.893Z,7.40
2018-07-09T05:59:58.343Z,7.27
2018-07-09T06:02:26.536Z,7.70
2018-07-09T06:07:53.743Z,7.17
2018-07-09T06:10:26.220Z,7.73
2018-07-09T06:13:03.003Z,7.50
2018-07-09T06:15:36.806Z,8.03
2018-07-09T06:18:06.322Z,7.23
2018-07-09T06:20:39.204Z,7.47
2018-07-09T06:23:11.018Z,8.17
2018-07-09T06:25:41.522Z,8.80
2018-07-09T06:28:12.221Z,7.07
2018-07-09T06:30:43.240Z,6.53
2018-07-09T06:33:23.282Z,7.50
2018-07-09T06:36:08.367Z,7.60
2018-07-09T06:38:41.521Z,7.07
2018-07-09T06:41:10.482Z,6.83
2018-07-09T06:43:38.926Z,5.97
2018-07-09T06:46:08.140Z,6.90
2018-07-09T06:48:37.477Z,7.20
2018-07-09T06:51:24.553Z,6.30
2018-07-09T06:53:55.426Z,6.00
2018-07-09T06:56:23.911Z,6.53
2018-07-09T06:58:52.670Z,6.17
2018-07-09T07:01:21.344Z,6.83
2018-07-09T07:03:49.797Z,6.20
2018-07-09T07:06:18.929Z,7.10
2018-07-09T07:08:47.543Z,7.20
2018-07-09T07:11:16.167Z,5.90
2018-07-09T07:13:45.105Z,5.80
2018-07-09T07:16:13.349Z,7.77
2018-07-09T07:18:41.452Z,7.03
2018-07-09T07:21:09.946Z,6.10
2018-07-09T07:23:43.155Z,6.23
2018-07-09T07:26:11.838Z,6.17
2018-07-09T07:28:40.313Z,6.40
2018-07-09T07:31:09.619Z,5.93
2018-07-09T07:33:37.888Z,6.70
2018-07-09T07:36:06.031Z,5.97
2018-07-09T07:38:39.081Z,5.93
2018-07-09T07:41:07.393Z,6.90
2018-07-09T07:43:35.607Z,5.67
2018-07-09T07:46:14.267Z,6.40
2018-07-09T07:48:44.549Z,7.00
2018-07-09T07:51:17.341Z,6.13
2018-07-09T07:53:48.317Z,6.10
2018-07-09T07:56:16.940Z,5.47
2018-07-09T08:02:03.264Z,5.27
2018-07-09T08:04:31.933Z,5.50
2018-07-09T08:07:38.522Z,5.67
2018-07-09T08:10:12.603Z,5.83
2018-07-09T08:13:27.175Z,6.00
2018-07-09T08:15:34.829Z,5.20
2018-07-09T08:18:10.981Z,5.63
2018-07-09T08:20:39.511Z,5.10
2018-07-09T08:23:08.577Z,6.57
2018-07-09T08:25:37.228Z,4.80
2018-07-09T08:28:05.714Z,6.03
2018-07-09T08:30:33.844Z,4.97
2018-07-09T08:33:02.253Z,5.27
2018-07-09T08:35:30.736Z,5.67
2018-07-09T08:38:03.684Z,4.53
2018-07-09T08:40:32.493Z,5.70
2018-07-09T08:43:00.923Z,5.00
2018-07-09T08:45:31.325Z,4.90
2018-07-09T08:48:05.334Z,5.43
2018-07-09T08:50:33.450Z,4.97
2018-07-09T08:53:01.901Z,4.57
2018-07-09T08:55:30.385Z,7.40
2018-07-09T08:57:58.816Z,5.33
2018-07-09T09:00:27.337Z,5.20
2018-07-09T09:02:57.712Z,5.50
2018-07-09T09:05:26.208Z,4.90
2018-07-09T09:07:54.379Z,4.23
2018-07-09T09:10:22.515Z,5.07
2018-07-09T09:12:51.004Z,6.00
2018-07-09T09:15:19.553Z,4.97
2018-07-09T09:17:48.142Z,5.27
2018-07-09T09:20:16.612Z,4.50
2018-07-09T09:22:44.793Z,5.13
2018-07-09T09:25:12.974Z,5.70
2018-07-09T09:27:42.357Z,5.87
2018-07-09T09:30:10.786Z,6.00
2018-07-09T09:32:39.200Z,6.50
2018-07-09T09:35:07.700Z,6.00
2018-07-09T09:37:35.880Z,6.00
2018-07-09T09:40:04.417Z,5.67
2018-07-09T09:42:32.594Z,5.00
2018-07-09T09:45:01.009Z,5.57
2018-07-09T09:47:29.456Z,5.20
2018-07-09T09:49:57.920Z,6.47
2018-07-09T09:52:26.371Z,6.20
2018-07-09T09:54:55.219Z,5.80
2018-07-09T09:57:32.875Z,6.13
2018-07-09T10:00:07.619Z,4.80
2018-07-09T10:02:36.360Z,5.50
2018-07-09T10:05:04.570Z,6.03
2018-07-09T10:07:33.081Z,5.57
2018-07-09T10:10:01.210Z,5.80
2018-07-09T10:12:29.314Z,6.20
2018-07-09T10:14:57.785Z,5.87
2018-07-09T10:17:26.222Z,6.40
2018-07-09T10:19:54.738Z,7.57
2018-07-09T10:22:22.834Z,5.97
2018-07-09T10:24:58.142Z,6.10
2018-07-09T10:27:26.293Z,5.60
2018-07-09T10:29:54.764Z,5.77
2018-07-09T10:32:22.898Z,5.97
2018-07-09T10:34:54.925Z,5.07
2018-07-09T10:37:23.040Z,4.93
2018-07-09T10:39:51.513Z,5.20
2018-07-09T10:42:19.985Z,5.07
2018-07-09T10:44:48.460Z,5.17
2018-07-09T10:47:16.638Z,5.60
2018-07-09T10:49:45.107Z,4.63
2018-07-09T10:52:13.561Z,4.67
2018-07-09T10:54:42.032Z,5.30
2018-07-09T10:57:10.509Z,5.00
2018-07-09T10:59:38.976Z,5.47
2018-07-09T11:02:07.403Z,4.40
2018-07-09T11:04:35.843Z,4.97
2018-07-09T11:07:04.095Z,4.93
2018-07-09T11:09:34.643Z,6.50
2018-07-09T11:12:03.213Z,5.77
2018-07-09T11:14:31.683Z,5.27
2018-07-09T11:17:00.155Z,4.60
2018-07-09T11:19:28.294Z,4.63
2018-07-09T11:21:56.784Z,4.70
2018-07-09T11:24:25.181Z,5.37
2018-07-09T11:26:53.634Z,5.00
2018-07-09T11:29:22.152Z,4.93
2018-07-09T11:31:50.267Z,4.90
2018-07-09T11:34:18.764Z,5.00
2018-07-09T11:36:46.875Z,4.67
2018-07-09T11:39:15.657Z,5.90
2018-07-09T11:41:43.830Z,5.10
2018-07-09T11:44:23.795Z,5.10
2018-07-09T11:47:02.198Z,5.00
2018-07-09T11:49:30.756Z,4.20
2018-07-09T11:51:59.314Z,4.90
2018-07-09T11:54:27.739Z,5.27
2018-07-09T11:56:56.178Z,5.07
2018-07-09T11:59:24.653Z,5.27
2018-07-09T12:01:53.122Z,4.80
2018-07-09T12:04:21.206Z,4.93
2018-07-09T12:06:49.641Z,4.90
2018-07-09T12:09:18.041Z,5.67
2018-07-09T12:11:46.137Z,5.70
2018-07-09T12:14:14.571Z,7.40
2018-07-09T12:16:42.710Z,8.50
2018-07-09T12:19:11.184Z,8.03
2018-07-09T12:21:39.691Z,6.40
2018-07-09T12:24:08.088Z,5.83
2018-07-09T12:26:36.229Z,5.80
2018-07-09T12:29:04.740Z,6.17
2018-07-09T12:31:32.794Z,4.80
2018-07-09T12:34:01.226Z,5.13
2018-07-09T12:36:29.548Z,5.50
2018-07-09T12:38:57.589Z,4.73
2018-07-09T12:41:26.030Z,5.53
2018-07-09T12:43:54.198Z,6.37
2018-07-09T12:46:22.684Z,7.40
2018-07-09T12:48:51.098Z,6.90
2018-07-09T12:51:22.815Z,5.80
2018-07-09T12:53:51.994Z,5.70
2018-07-09T12:56:24.857Z,4.87
2018-07-09T12:58:57.869Z,5.30
2018-07-09T13:01:26.205Z,4.70
2018-07-09T13:04:00.265Z,5.23
2018-07-09T13:06:37.881Z,5.77
2018-07-09T13:09:09.345Z,5.07
2018-07-09T13:11:40.401Z,6.20
2018-07-09T13:14:22.926Z,6.37
2018-07-09T13:16:51.374Z,5.57
2018-07-09T13:19:19.589Z,6.90
2018-07-09T13:21:49.183Z,4.87
2018-07-09T13:24:18.288Z,4.47
2018-07-09T13:26:51.889Z,4.43
2018-07-09T13:29:20.165Z,5.30
2018-07-09T13:31:48.286Z,5.37
2018-07-09T13:34:16.417Z,5.00
2018-07-09T13:36:44.640Z,4.73
2018-07-09T13:39:13.177Z,5.10
2018-07-09T13:41:41.360Z,5.23
2018-07-09T13:44:09.556Z,6.00
2018-07-09T13:46:38.080Z,4.90
2018-07-09T13:49:06.345Z,4.13
2018-07-09T13:51:34.904Z,5.23
2018-07-09T13:54:03.416Z,5.10
2018-07-09T13:56:31.691Z,5.97
2018-07-09T13:59:04.007Z,5.13
2018-07-09T14:01:34.543Z,5.30
2018-07-09T14:04:03.038Z,5.90
2018-07-09T14:06:32.028Z,5.07
2018-07-09T14:09:00.973Z,5.60
2018-07-09T14:11:32.372Z,5.50
2018-07-09T14:14:00.955Z,5.40
2018-07-09T14:16:30.712Z,5.40
2018-07-09T14:18:59.324Z,6.40
2018-07-09T14:21:27.747Z,5.50
2018-07-09T14:23:55.958Z,5.23
2018-07-09T14:26:24.182Z,6.23
2018-07-09T14:28:52.894Z,5.70
2018-07-09T14:31:21.368Z,5.33
2018-07-09T14:33:49.518Z,5.50
2018-07-09T14:36:18.001Z,5.13
2018-07-09T14:38:46.529Z,5.50
2018-07-09T14:41:14.759Z,5.00
2018-07-09T14:43:43.185Z,5.40
2018-07-09T14:46:11.522Z,5.40
2018-07-09T14:48:40.069Z,5.33
2018-07-09T14:51:09.201Z,5.90
2018-07-09T14:53:40.428Z,5.30
2018-07-09T14:56:08.697Z,6.37
2018-07-09T14:58:37.324Z,5.40
2018-07-09T15:01:05.915Z,5.57
2018-07-09T15:03:34.398Z,5.40
2018-07-09T15:06:02.526Z,5.60
2018-07-09T15:08:30.974Z,5.03
2018-07-09T15:11:00.388Z,5.37
2018-07-09T15:13:28.775Z,5.83
2018-07-09T15:15:57.277Z,5.70
2018-07-09T15:18:36.091Z,5.53
2018-07-09T15:21:11.855Z,4.90
2018-07-09T15:23:52.115Z,5.60
2018-07-09T15:26:26.413Z,5.00
2018-07-09T15:29:04.906Z,5.33
2018-07-09T15:31:44.242Z,4.97
2018-07-09T15:34:21.756Z,5.10
2018-07-09T15:36:57.733Z,5.30
2018-07-09T15:39:35.590Z,5.37
2018-07-09T15:42:15.164Z,5.20
2018-07-09T15:44:52.216Z,4.87
2018-07-09T15:47:31.883Z,5.87
2018-07-09T15:50:10.070Z,4.80
2018-07-09T15:52:52.200Z,4.70
2018-07-09T15:55:30.037Z,5.20
2018-07-09T15:58:06.362Z,4.60
2018-07-09T16:00:41.884Z,5.50
2018-07-09T16:03:24.901Z,4.77
2018-07-09T16:06:03.868Z,4.73
2018-07-09T16:08:40.095Z,4.53
2018-07-09T16:11:13.076Z,4.70
2018-07-09T16:13:46.367Z,4.20
2018-07-09T16:16:19.268Z,4.40
2018-07-09T16:18:55.382Z,4.90
2018-07-09T16:21:28.609Z,5.20
2018-07-09T16:24:03.683Z,4.20
2018-07-09T16:26:40.127Z,4.50
2018-07-09T16:29:16.833Z,5.07
2018-07-09T16:31:51.715Z,5.00
2018-07-09T16:34:23.382Z,5.37
2018-07-09T16:36:56.889Z,4.93
2018-07-09T16:39:41.031Z,4.43
2018-07-09T16:42:13.256Z,4.17
2018-07-09T16:44:51.530Z,4.50
2018-07-09T16:47:24.563Z,4.40
2018-07-09T16:49:59.607Z,5.67
2018-07-09T16:52:36.755Z,4.60
2018-07-09T16:55:16.349Z,5.03
2018-07-09T17:00:29.591Z,5.10
2018-07-09T17:03:08.863Z,5.30
2018-07-09T17:05:47.647Z,4.73
2018-07-09T17:08:27.975Z,5.00
2018-07-09T17:11:06.811Z,5.30
2018-07-09T17:13:41.749Z,5.13
2018-07-09T17:16:21.303Z,4.80
2018-07-09T17:18:53.155Z,4.80
2018-07-09T17:21:25.044Z,4.33
2018-07-09T17:23:59.557Z,4.80
2018-07-09T17:26:38.090Z,5.10
2018-07-09T17:29:12.353Z,5.23
2018-07-09T17:31:52.006Z,5.03
2018-07-09T17:34:26.236Z,4.93
2018-07-09T17:37:01.829Z,5.47
2018-07-09T17:39:40.938Z,4.90
2018-07-09T17:42:17.595Z,5.10
2018-07-09T17:44:51.609Z,5.10
2018-07-09T17:47:20.104Z,5.80
2018-07-09T17:49:48.799Z,5.37
2018-07-09T17:52:17.212Z,5.93
2018-07-09T17:54:45.373Z,5.00
2018-07-09T17:57:14.158Z,5.37
2018-07-09T17:59:42.391Z,4.93
2018-07-09T18:02:10.521Z,5.60
2018-07-09T18:04:38.724Z,5.07
2018-07-09T18:07:07.640Z,4.77
2018-07-09T18:09:35.952Z,5.57
2018-07-09T18:12:04.163Z,4.73
2018-07-09T18:14:32.647Z,4.60
2018-07-09T18:17:00.930Z,5.63
2018-07-09T18:19:29.528Z,5.20
2018-07-09T18:21:57.777Z,6.10
2018-07-09T18:24:26.237Z,7.50
2018-07-09T18:26:54.793Z,5.63
2018-07-09T18:29:23.359Z,6.23
2018-07-09T18:31:51.580Z,5.77
2018-07-09T18:34:21.187Z,5.07
2018-07-09T18:36:49.549Z,5.20
2018-07-09T18:39:18.056Z,5.90
2018-07-09T18:41:46.782Z,5.50
2018-07-09T18:44:15.989Z,5.50
2018-07-09T18:46:45.072Z,5.50
2018-07-09T18:49:13.327Z,5.63
2018-07-09T18:51:42.643Z,6.43
2018-07-09T18:54:10.989Z,7.10
2018-07-09T18:56:39.603Z,6.00
2018-07-09T18:59:09.214Z,6.40
2018-07-09T19:01:37.523Z,7.03
2018-07-09T19:04:08.604Z,6.63
2018-07-09T19:06:43.606Z,5.10
2018-07-09T19:09:12.706Z,6.30
2018-07-09T19:11:42.285Z,5.33
2018-07-09T19:14:13.140Z,5.57
2018-07-09T19:16:53.196Z,7.13
2018-07-09T19:19:26.935Z,7.97
2018-07-09T19:22:01.474Z,5.90
2018-07-09T19:24:29.520Z,6.40
2018-07-09T19:26:59.630Z,6.57
2018-07-09T19:29:27.765Z,6.77
2018-07-09T19:31:55.449Z,7.03
2018-07-09T19:34:23.804Z,7.17
2018-07-09T19:36:52.153Z,6.30
2018-07-09T19:39:19.700Z,6.03
2018-07-09T19:41:47.408Z,7.50
2018-07-09T19:44:15.096Z,6.33
2018-07-09T19:46:42.752Z,6.50
2018-07-09T19:49:10.512Z,7.80
2018-07-09T19:51:38.243Z,8.03
2018-07-09T19:54:08.362Z,5.77
2018-07-09T19:56:36.339Z,7.20
2018-07-09T19:59:03.738Z,6.73
2018-07-09T20:01:31.477Z,6.73
2018-07-09T20:03:59.059Z,6.57
2018-07-09T20:06:27.328Z,7.10
2018-07-09T20:09:00.378Z,6.47
2018-07-09T20:11:33.293Z,7.40
2018-07-09T20:14:06.382Z,5.80
2018-07-09T20:16:38.907Z,6.73
2018-07-09T20:19:06.554Z,7.07
2018-07-09T20:21:34.217Z,6.70
2018-07-09T20:24:01.913Z,7.77
2018-07-09T20:26:29.389Z,6.27
2018-07-09T20:28:56.783Z,6.50
2018-07-09T20:31:24.155Z,6.40
2018-07-09T20:33:51.871Z,7.63
2018-07-09T20:36:19.256Z,7.37
2018-07-09T20:38:46.882Z,7.20
2018-07-09T20:41:14.576Z,6.03
2018-07-09T20:43:42.222Z,6.87
2018-07-09T20:46:09.876Z,6.50
2018-07-09T20:48:37.524Z,7.70
2018-07-09T20:51:05.160Z,6.97
2018-07-09T20:53:32.785Z,6.77
2018-07-09T20:56:00.251Z,8.97
2018-07-09T20:58:27.861Z,7.30
2018-07-09T21:00:55.511Z,8.00
2018-07-09T21:03:22.889Z,7.70
2018-07-09T21:05:50.572Z,8.70
2018-07-09T21:08:17.891Z,7.63
2018-07-09T21:10:45.554Z,8.23
2018-07-09T21:13:12.906Z,7.93
2018-07-09T21:15:40.384Z,9.30
2018-07-09T21:18:07.674Z,9.37
2018-07-09T21:20:35.027Z,8.30
2018-07-09T21:23:02.586Z,8.27
2018-07-09T21:25:30.203Z,8.33
2018-07-09T21:27:57.504Z,7.97
2018-07-09T21:30:25.113Z,9.30
2018-07-09T21:32:52.458Z,8.30
2018-07-09T21:35:19.808Z,8.80
2018-07-09T21:37:47.240Z,8.90
2018-07-09T21:40:14.793Z,9.10
2018-07-09T21:42:42.089Z,8.20
2018-07-09T21:45:09.703Z,8.90
2018-07-09T21:47:37.065Z,8.47
2018-07-09T21:50:04.444Z,7.93
2018-07-09T21:52:32.007Z,8.97
2018-07-09T21:54:59.595Z,8.00
2018-07-09T21:57:27.186Z,8.13
2018-07-09T21:59:54.756Z,9.77
2018-07-09T22:02:22.371Z,9.30
2018-07-09T22:04:49.686Z,8.70
2018-07-09T22:07:17.000Z,9.67
2018-07-09T22:09:44.366Z,8.37
2018-07-09T22:12:11.925Z,8.10
2018-07-09T22:14:39.491Z,8.67
2018-07-09T22:17:06.812Z,8.50
2018-07-09T22:19:34.138Z,8.53
2018-07-09T22:22:01.483Z,8.90
2018-07-09T22:24:29.052Z,9.53
2018-07-09T22:26:56.422Z,9.20
2018-07-09T22:29:23.744Z,9.20
2018-07-09T22:31:52.308Z,8.73
2018-07-09T22:34:20.440Z,8.90
2018-07-09T22:36:49.809Z,8.17
2018-07-09T22:39:18.241Z,8.23
2018-07-09T22:41:46.761Z,10.00
2018-07-09T22:44:20.065Z,11.10
2018-07-09T22:46:48.505Z,9.33
2018-07-09T22:49:17.040Z,9.67
2018-07-09T22:51:45.814Z,8.83
2018-07-09T22:54:14.338Z,10.03
2018-07-09T22:56:42.760Z,8.43
2018-07-09T22:59:10.931Z,9.77
2018-07-09T23:01:39.331Z,10.87
2018-07-09T23:04:07.453Z,11.00
2018-07-09T23:06:35.960Z,9.80
2018-07-09T23:11:20.640Z,9.80
2018-07-09T23:13:54.108Z,9.50
2018-07-09T23:16:39.023Z,10.07
2018-07-09T23:19:20.446Z,10.40
2018-07-09T23:22:00.233Z,9.90
2018-07-09T23:24:27.872Z,10.10
2018-07-09T23:26:55.602Z,10.63
2018-07-09T23:29:22.904Z,11.30
2018-07-09T23:31:50.311Z,10.77
2018-07-09T23:34:18.174Z,9.53
2018-07-09T23:36:45.758Z,10.10
2018-07-09T23:39:13.534Z,10.93
2018-07-09T23:41:41.136Z,9.23
2018-07-09T23:44:08.446Z,11.40
2018-07-09T23:46:36.088Z,9.33
2018-07-09T23:49:03.632Z,10.20
2018-07-09T23:51:31.040Z,9.63
2018-07-09T23:53:58.595Z,10.93
2018-07-09T23:58:36.060Z,9.53
